Time;durP1;ratioP1;P1;durP2;ratioP2;P2;SDS_P1;SDS_P2;PMS_P1;PMS_P2;Temp;Humidity;BMP_temperature;BMP_pressure;BME280_temperature;BME280_humidity;BME280_pressure;Samples;Min_cycle;Max_cycle;Signal;HPM_P1;HPM_P2
2021/11/25 00:01:41;;;;;;;23.33;18.17;;;2.00;99.90;;;;;;5059458;28;20079;-90
2021/11/25 00:04:08;;;;;;;21.95;17.90;;;2.00;99.90;;;;;;5059298;28;20059;-90
2021/11/25 00:06:38;;;;;;;22.83;18.58;;;2.00;99.90;;;;;;5059696;28;20048;-90
2021/11/25 00:09:05;;;;;;;22.23;17.60;;;2.00;99.90;;;;;;5058965;28;20045;-89
2021/11/25 00:11:32;;;;;;;23.13;18.00;;;2.00;99.90;;;;;;5059699;28;20064;-89
2021/11/25 00:13:59;;;;;;;21.13;17.17;;;2.10;99.90;;;;;;5059163;28;20159;-89
2021/11/25 00:16:26;;;;;;;20.38;16.55;;;2.10;99.90;;;;;;5058959;28;20059;-89
2021/11/25 00:18:53;;;;;;;20.85;16.35;;;2.10;99.90;;;;;;5058932;28;20435;-90
2021/11/25 00:21:20;;;;;;;21.02;16.17;;;2.10;99.90;;;;;;5059232;28;20078;-90
2021/11/25 00:23:48;;;;;;;21.38;16.55;;;2.10;99.90;;;;;;5060465;28;20044;-89
2021/11/25 00:26:16;;;;;;;21.02;16.13;;;2.10;99.90;;;;;;5078979;28;20143;-90
2021/11/25 00:28:44;;;;;;;22.40;16.70;;;2.10;99.90;;;;;;5079883;28;20511;-89
2021/11/25 00:31:11;;;;;;;21.10;16.20;;;2.20;99.90;;;;;;5076217;28;20497;-89
2021/11/25 00:33:39;;;;;;;21.33;16.92;;;2.10;99.90;;;;;;5058611;28;20424;-89
2021/11/25 00:36:06;;;;;;;23.25;16.20;;;2.10;99.90;;;;;;5058241;28;20084;-89
2021/11/25 00:38:33;;;;;;;20.17;16.33;;;2.10;99.90;;;;;;5058369;28;20139;-89
2021/11/25 00:41:00;;;;;;;21.30;16.95;;;2.20;99.90;;;;;;5075887;28;20053;-89
2021/11/25 00:43:27;;;;;;;19.88;16.35;;;2.20;99.90;;;;;;5075800;28;20131;-90
2021/11/25 00:45:53;;;;;;;19.10;15.02;;;2.30;99.90;;;;;;5075735;28;20135;-90
2021/11/25 00:48:20;;;;;;;17.63;14.43;;;2.20;99.90;;;;;;5058429;28;20071;-89
2021/11/25 00:50:47;;;;;;;18.58;15.23;;;2.20;99.90;;;;;;5075459;28;20059;-89
2021/11/25 00:53:15;;;;;;;18.40;14.35;;;2.20;99.90;;;;;;5058275;28;20135;-89
2021/11/25 00:55:42;;;;;;;17.85;14.85;;;2.30;99.90;;;;;;5075716;28;20055;-88
2021/11/25 00:58:09;;;;;;;16.10;13.68;;;2.30;99.90;;;;;;5058130;28;20382;-89
2021/11/25 01:00:38;;;;;;;16.27;13.35;;;2.30;99.90;;;;;;5058051;28;20485;-89
2021/11/25 01:03:06;;;;;;;16.88;14.00;;;2.30;99.90;;;;;;5059192;28;20059;-89
2021/11/25 01:05:32;;;;;;;15.43;12.48;;;2.30;99.90;;;;;;5057837;28;20588;-89
2021/11/25 01:08:00;;;;;;;18.25;13.00;;;2.30;99.90;;;;;;5075317;28;20053;-89
2021/11/25 01:10:27;;;;;;;14.60;12.88;;;2.30;99.90;;;;;;5057773;28;20044;-89
2021/11/25 01:12:55;;;;;;;15.50;12.88;;;2.30;99.90;;;;;;5057696;28;20047;-89
2021/11/25 01:15:29;;;;;;;16.23;12.98;;;2.30;99.90;;;;;;5075349;28;20048;-88
2021/11/25 01:18:02;;;;;;;15.10;12.75;;;2.30;99.90;;;;;;5074872;28;20063;-89
2021/11/25 01:20:29;;;;;;;16.00;14.00;;;2.30;99.90;;;;;;5062138;28;20497;-88
2021/11/25 01:22:57;;;;;;;15.70;12.75;;;2.40;99.90;;;;;;5057296;28;20041;-89
2021/11/25 01:25:24;;;;;;;15.98;12.65;;;2.40;99.90;;;;;;5057411;28;20057;-89
2021/11/25 01:27:51;;;;;;;14.68;12.48;;;2.40;99.90;;;;;;5057807;28;20079;-88
2021/11/25 01:30:18;;;;;;;15.70;12.75;;;2.40;99.90;;;;;;5074793;28;20382;-89
2021/11/25 01:32:45;;;;;;;13.68;11.75;;;2.40;99.90;;;;;;5057425;28;20131;-87
2021/11/25 01:35:12;;;;;;;13.88;12.05;;;2.40;99.90;;;;;;5075246;28;20083;-88
2021/11/25 01:37:39;;;;;;;15.90;12.00;;;2.50;99.90;;;;;;5057980;28;20041;-89
2021/11/25 01:40:09;;;;;;;16.27;12.52;;;2.50;99.90;;;;;;5066189;28;20048;-88
2021/11/25 01:42:39;;;;;;;15.00;11.80;;;2.50;99.90;;;;;;5085581;28;20053;-88
2021/11/25 01:45:06;;;;;;;14.82;12.10;;;2.50;99.90;;;;;;5074955;28;20052;-88
2021/11/25 01:47:33;;;;;;;15.27;12.18;;;2.60;99.90;;;;;;5057299;28;20044;-88
2021/11/25 01:50:00;;;;;;;18.38;13.15;;;2.50;99.90;;;;;;5056826;28;20102;-88
2021/11/25 01:52:27;;;;;;;17.50;11.93;;;2.50;99.90;;;;;;5074361;28;20045;-88
2021/11/25 01:54:54;;;;;;;15.18;11.43;;;2.60;99.90;;;;;;5056689;28;20048;-88
2021/11/25 01:57:21;;;;;;;14.85;12.00;;;2.60;99.90;;;;;;5056821;28;20045;-88
2021/11/25 01:59:48;;;;;;;13.32;11.00;;;2.50;99.90;;;;;;5056617;28;20060;-89
2021/11/25 02:02:15;;;;;;;15.15;11.77;;;2.60;99.90;;;;;;5056880;28;20101;-89
2021/11/25 02:04:43;;;;;;;12.88;10.75;;;2.60;99.90;;;;;;5057006;28;20041;-88
2021/11/25 02:07:10;;;;;;;13.02;10.30;;;2.50;99.90;;;;;;5056705;28;20090;-88
2021/11/25 02:09:37;;;;;;;13.32;10.52;;;2.60;99.90;;;;;;5056730;28;20059;-88
2021/11/25 02:12:04;;;;;;;15.30;11.55;;;2.60;99.90;;;;;;5056627;28;20058;-89
2021/11/25 02:14:31;;;;;;;13.02;10.60;;;2.60;99.90;;;;;;5056711;28;20055;-89
2021/11/25 02:16:58;;;;;;;13.88;10.48;;;2.60;99.90;;;;;;5056557;28;20048;-88
2021/11/25 02:19:26;;;;;;;15.48;11.05;;;2.60;99.90;;;;;;5056668;28;20048;-88
2021/11/25 02:21:53;;;;;;;15.93;11.65;;;2.60;99.90;;;;;;5056627;28;20048;-89
2021/11/25 02:24:19;;;;;;;15.15;11.65;;;2.60;99.90;;;;;;5074092;28;20386;-88
2021/11/25 02:26:46;;;;;;;15.32;11.15;;;2.50;99.90;;;;;;5056548;28;20481;-89
2021/11/25 02:29:13;;;;;;;15.43;10.32;;;2.60;99.90;;;;;;5073962;28;20051;-89
2021/11/25 02:31:40;;;;;;;14.05;11.00;;;2.60;99.90;;;;;;5074048;28;20171;-88
2021/11/25 02:34:07;;;;;;;12.93;10.57;;;2.60;99.90;;;;;;5073910;28;20083;-88
2021/11/25 02:36:34;;;;;;;14.57;11.50;;;2.50;99.90;;;;;;5056424;28;20536;-88
2021/11/25 02:39:02;;;;;;;15.23;11.48;;;2.50;99.90;;;;;;5055901;28;20048;-87
2021/11/25 02:41:29;;;;;;;15.98;10.77;;;2.60;99.90;;;;;;5056468;28;20083;-88
2021/11/25 02:43:57;;;;;;;14.23;10.93;;;2.60;99.90;;;;;;5056192;28;20048;-88
2021/11/25 02:46:24;;;;;;;14.77;11.13;;;2.60;99.90;;;;;;5056121;28;20052;-88
2021/11/25 02:48:54;;;;;;;14.43;10.77;;;2.60;99.90;;;;;;5056157;28;20503;-88
2021/11/25 02:51:26;;;;;;;15.10;11.50;;;2.60;99.90;;;;;;5056179;28;20049;-88
2021/11/25 02:53:54;;;;;;;13.88;10.27;;;2.60;99.90;;;;;;5056829;28;20041;-88
2021/11/25 02:56:23;;;;;;;14.30;11.07;;;2.70;99.90;;;;;;5092360;28;20094;-89
2021/11/25 02:58:52;;;;;;;17.67;12.00;;;2.70;99.90;;;;;;5060494;28;20049;-88
2021/11/25 03:01:19;;;;;;;13.48;10.65;;;2.70;99.90;;;;;;5073547;28;20131;-89
2021/11/25 03:03:47;;;;;;;14.65;11.13;;;2.70;99.90;;;;;;5055449;28;20048;-88
2021/11/25 03:06:14;;;;;;;14.20;11.07;;;2.70;99.90;;;;;;5073418;28;20488;-88
2021/11/25 03:08:42;;;;;;;16.15;12.00;;;2.70;99.90;;;;;;5073218;28;20480;-88
2021/11/25 03:11:12;;;;;;;16.25;11.90;;;2.70;99.90;;;;;;5056015;28;20143;-87
2021/11/25 03:13:42;;;;;;;16.90;12.43;;;2.60;99.90;;;;;;5056189;28;20090;-88
2021/11/25 03:16:11;;;;;;;17.95;12.18;;;2.70;99.90;;;;;;5055877;28;20045;-88
2021/11/25 03:18:39;;;;;;;17.23;11.82;;;2.70;99.90;;;;;;5055371;28;20135;-88
2021/11/25 03:21:07;;;;;;;16.70;11.65;;;2.70;99.90;;;;;;5055766;28;20552;-88
2021/11/25 03:23:37;;;;;;;15.98;11.65;;;2.70;99.90;;;;;;5073473;28;20411;-88
2021/11/25 03:26:06;;;;;;;15.18;10.63;;;2.60;99.90;;;;;;5055751;28;20474;-88
2021/11/25 03:28:36;;;;;;;18.00;12.05;;;2.70;99.90;;;;;;5055614;28;20158;-88
2021/11/25 03:31:03;;;;;;;16.35;11.38;;;2.80;99.90;;;;;;5073154;28;20044;-88
2021/11/25 03:33:32;;;;;;;17.20;11.52;;;2.80;99.90;;;;;;5055824;28;20080;-88
2021/11/25 03:36:03;;;;;;;16.73;12.48;;;2.80;99.90;;;;;;5055679;28;20054;-88
2021/11/25 03:38:30;;;;;;;19.08;12.65;;;2.70;99.90;;;;;;5055696;28;20123;-88
2021/11/25 03:40:58;;;;;;;16.75;12.05;;;2.60;99.90;;;;;;5055541;28;20507;-88
2021/11/25 03:43:25;;;;;;;16.98;12.45;;;2.60;99.90;;;;;;5055342;28;20041;-87
2021/11/25 03:45:52;;;;;;;19.05;12.43;;;2.60;99.90;;;;;;5072902;28;20136;-88
2021/11/25 03:48:23;;;;;;;16.92;12.30;;;2.50;99.90;;;;;;5073096;28;20040;-88
2021/11/25 03:50:51;;;;;;;18.10;12.82;;;2.50;99.90;;;;;;5072944;28;20048;-87
2021/11/25 03:53:18;;;;;;;16.38;12.45;;;2.50;99.90;;;;;;5055596;28;20052;-88
2021/11/25 03:55:45;;;;;;;19.25;12.77;;;2.50;99.90;;;;;;5055426;28;20049;-88
2021/11/25 03:58:12;;;;;;;19.73;12.43;;;2.60;99.90;;;;;;5055638;28;20083;-88
2021/11/25 04:00:38;;;;;;;22.85;13.52;;;2.60;99.90;;;;;;5055406;28;20041;-88
2021/11/25 04:03:05;;;;;;;21.98;14.68;;;2.60;99.90;;;;;;5073044;28;20049;-88
2021/11/25 04:05:33;;;;;;;24.63;15.27;;;2.60;99.90;;;;;;5076743;28;20480;-88
2021/11/25 04:08:00;;;;;;;18.27;12.35;;;2.60;99.90;;;;;;5076498;28;20130;-88
2021/11/25 04:10:27;;;;;;;19.73;12.90;;;2.50;99.90;;;;;;5064328;28;20052;-88
2021/11/25 04:12:53;;;;;;;18.60;13.05;;;2.60;99.90;;;;;;5073788;28;20119;-88
2021/11/25 04:15:21;;;;;;;18.02;12.45;;;2.60;99.90;;;;;;5077315;28;20070;-88
2021/11/25 04:17:48;;;;;;;17.02;12.20;;;2.70;99.90;;;;;;5058272;28;20158;-87
2021/11/25 04:20:15;;;;;;;17.48;12.45;;;2.70;99.90;;;;;;5058930;28;20049;-88
2021/11/25 04:22:42;;;;;;;19.35;14.18;;;2.70;99.90;;;;;;5059173;28;20044;-88
2021/11/25 04:25:11;;;;;;;22.88;15.68;;;2.70;99.90;;;;;;5059089;28;20052;-87
2021/11/25 04:27:38;;;;;;;21.10;14.90;;;2.60;99.90;;;;;;5060399;28;20109;-88
2021/11/25 04:30:24;;;;;;;19.85;13.60;;;2.70;99.90;;;;;;5060190;28;20055;-88
2021/11/25 04:35:36;;;;;;;17.08;12.55;;;2.70;99.90;;;;;;5078030;28;20091;-88
2021/11/25 04:38:13;;;;;;;17.90;12.75;;;2.70;99.90;;;;;;5077529;28;20060;-87
2021/11/25 04:40:44;;;;;;;19.05;13.90;;;2.60;99.90;;;;;;5076043;28;20102;-87
2021/11/25 04:43:11;;;;;;;20.55;13.90;;;2.70;99.90;;;;;;5058428;28;20052;-88
2021/11/25 04:45:40;;;;;;;17.50;13.23;;;2.70;99.90;;;;;;5058265;28;20044;-88
2021/11/25 04:48:07;;;;;;;21.42;14.32;;;2.70;99.90;;;;;;5076962;28;20083;-87
2021/11/25 04:50:34;;;;;;;19.55;13.88;;;2.60;99.90;;;;;;5076003;28;20055;-88
2021/11/25 04:53:02;;;;;;;18.67;13.27;;;2.60;99.90;;;;;;5076236;28;20049;-87
2021/11/25 04:55:29;;;;;;;21.88;13.85;;;2.60;99.90;;;;;;5058389;28;20124;-88
2021/11/25 04:57:56;;;;;;;21.50;14.00;;;2.60;99.90;;;;;;5076165;28;20048;-87
2021/11/25 05:00:23;;;;;;;20.45;14.27;;;2.60;99.90;;;;;;5075878;28;20052;-88
2021/11/25 05:02:49;;;;;;;20.55;15.30;;;2.60;99.90;;;;;;5075655;28;20499;-88
2021/11/25 05:05:17;;;;;;;20.50;14.50;;;2.60;99.90;;;;;;5075642;28;20409;-88
2021/11/25 05:07:44;;;;;;;18.17;13.02;;;2.60;99.90;;;;;;5059330;28;20049;-87
2021/11/25 05:10:11;;;;;;;36.42;14.30;;;2.60;99.90;;;;;;5075374;28;20049;-88
2021/11/25 05:12:38;;;;;;;25.40;14.13;;;2.50;99.90;;;;;;5058185;28;20574;-88
2021/11/25 05:15:07;;;;;;;23.55;13.93;;;2.60;99.90;;;;;;5057647;28;20071;-87
2021/11/25 05:17:35;;;;;;;18.88;13.18;;;2.60;99.90;;;;;;5058118;28;20052;-87
2021/11/25 05:20:04;;;;;;;19.25;13.52;;;2.60;99.90;;;;;;5075184;28;20048;-87
2021/11/25 05:22:30;;;;;;;20.15;14.00;;;2.50;99.90;;;;;;5075783;28;20135;-88
2021/11/25 05:24:57;;;;;;;18.85;13.90;;;2.50;99.90;;;;;;5058931;28;20040;-88
2021/11/25 05:27:24;;;;;;;20.63;14.45;;;2.50;99.90;;;;;;5074616;28;20071;-88
2021/11/25 05:29:51;;;;;;;21.33;14.50;;;2.50;99.90;;;;;;5070831;28;20051;-88
2021/11/25 05:32:18;;;;;;;22.20;14.63;;;2.50;99.90;;;;;;5057518;28;20048;-88
2021/11/25 05:34:47;;;;;;;21.13;14.30;;;2.50;99.90;;;;;;5056521;28;20051;-88
2021/11/25 05:37:16;;;;;;;18.95;13.70;;;2.50;99.90;;;;;;5056993;28;20094;-88
2021/11/25 05:39:43;;;;;;;19.35;14.25;;;2.50;99.90;;;;;;5056980;28;20055;-88
2021/11/25 05:42:10;;;;;;;21.45;15.02;;;2.50;99.90;;;;;;5057295;28;20052;-88
2021/11/25 05:44:39;;;;;;;19.65;14.48;;;2.50;99.90;;;;;;5057853;28;20044;-88
2021/11/25 05:47:06;;;;;;;21.20;15.57;;;2.50;99.90;;;;;;5074491;28;20072;-87
2021/11/25 05:49:33;;;;;;;17.98;13.80;;;2.50;99.90;;;;;;5074181;28;20166;-88
2021/11/25 05:52:00;;;;;;;22.48;15.43;;;2.50;99.90;;;;;;5057238;28;20044;-88
2021/11/25 05:54:27;;;;;;;21.98;15.13;;;2.50;99.90;;;;;;5056795;28;20125;-88
2021/11/25 05:56:54;;;;;;;20.17;15.07;;;2.50;99.90;;;;;;5056755;28;20044;-87
2021/11/25 05:59:20;;;;;;;19.17;14.52;;;2.40;99.90;;;;;;5074386;28;20052;-88
2021/11/25 06:01:47;;;;;;;22.08;15.25;;;2.50;99.90;;;;;;5057709;28;20049;-88
2021/11/25 06:04:14;;;;;;;19.80;15.18;;;2.50;99.90;;;;;;5057370;28;20048;-88
2021/11/25 06:06:41;;;;;;;20.30;14.15;;;2.50;99.90;;;;;;5075499;28;20465;-88
2021/11/25 06:09:08;;;;;;;21.40;15.40;;;2.50;99.90;;;;;;5074666;28;20052;-87
2021/11/25 06:11:35;;;;;;;20.25;15.00;;;2.50;99.90;;;;;;5056705;28;20052;-88
2021/11/25 06:14:02;;;;;;;18.55;14.05;;;2.50;99.90;;;;;;5074178;28;20041;-88
2021/11/25 06:16:28;;;;;;;23.25;16.23;;;2.50;99.90;;;;;;5056184;28;20052;-87
2021/11/25 06:18:55;;;;;;;28.02;20.65;;;2.50;99.90;;;;;;5056431;28;20045;-87
2021/11/25 06:21:22;;;;;;;28.85;22.75;;;2.50;99.90;;;;;;5073796;28;20507;-87
2021/11/25 06:23:49;;;;;;;20.42;14.68;;;2.50;99.90;;;;;;5056659;28;20104;-88
2021/11/25 06:26:16;;;;;;;20.17;14.38;;;2.50;99.90;;;;;;5055865;28;20045;-87
2021/11/25 06:28:42;;;;;;;20.30;13.68;;;2.50;99.90;;;;;;5056355;28;20059;-88
2021/11/25 06:31:09;;;;;;;18.75;13.20;;;2.50;99.90;;;;;;5074121;28;20056;-87
2021/11/25 06:33:36;;;;;;;19.75;14.50;;;2.50;99.90;;;;;;5057998;28;20486;-88
2021/11/25 06:36:03;;;;;;;20.58;14.90;;;2.50;99.90;;;;;;5056175;28;20055;-88
2021/11/25 06:38:30;;;;;;;18.17;14.00;;;2.50;99.90;;;;;;5056701;28;20408;-88
2021/11/25 06:40:56;;;;;;;19.33;14.18;;;2.60;99.90;;;;;;5059148;28;20052;-87
2021/11/25 06:43:26;;;;;;;19.30;14.65;;;2.60;99.90;;;;;;5074885;28;20103;-87
2021/11/25 06:45:53;;;;;;;20.35;14.98;;;2.60;99.90;;;;;;5065901;28;20052;-87
2021/11/25 06:48:20;;;;;;;20.13;14.27;;;2.70;99.90;;;;;;5057001;28;20053;-87
2021/11/25 06:50:47;;;;;;;20.85;14.07;;;2.60;99.90;;;;;;5055853;28;20131;-87
2021/11/25 06:53:14;;;;;;;21.58;14.77;;;2.60;99.90;;;;;;5073764;28;20044;-87
2021/11/25 06:55:41;;;;;;;21.40;15.52;;;2.70;99.90;;;;;;5055977;28;20151;-87
2021/11/25 06:58:07;;;;;;;18.38;14.30;;;2.70;99.90;;;;;;5056000;28;20055;-87
2021/11/25 07:00:35;;;;;;;22.50;16.40;;;2.70;99.90;;;;;;5055808;28;20071;-87
2021/11/25 07:03:02;;;;;;;19.58;15.07;;;2.70;99.90;;;;;;5055760;28;20067;-87
2021/11/25 07:05:29;;;;;;;21.42;14.55;;;2.70;99.90;;;;;;5056095;28;20044;-87
2021/11/25 07:07:56;;;;;;;18.98;14.13;;;2.70;99.90;;;;;;5073317;28;20488;-87
2021/11/25 07:10:24;;;;;;;22.40;15.23;;;2.70;99.90;;;;;;5073278;28;20059;-87
2021/11/25 07:12:51;;;;;;;19.55;13.98;;;2.70;99.90;;;;;;5055827;28;20110;-87
2021/11/25 07:15:21;;;;;;;20.90;14.32;;;2.60;99.90;;;;;;5055891;28;20491;-88
2021/11/25 07:17:48;;;;;;;20.13;14.38;;;2.60;99.90;;;;;;5055748;28;20059;-87
2021/11/25 07:20:15;;;;;;;21.73;15.68;;;2.60;99.90;;;;;;5055720;28;20048;-87
2021/11/25 07:22:42;;;;;;;19.17;13.40;;;2.60;99.90;;;;;;5055976;28;20045;-88
2021/11/25 07:25:11;;;;;;;18.05;14.00;;;2.60;99.90;;;;;;5055737;28;20045;-88
2021/11/25 07:27:38;;;;;;;18.27;13.73;;;2.70;99.90;;;;;;5073440;28;20186;-88
2021/11/25 07:30:07;;;;;;;19.67;12.90;;;2.70;99.90;;;;;;5055565;28;20055;-88
2021/11/25 07:32:34;;;;;;;17.30;13.15;;;2.70;99.90;;;;;;5073473;28;20393;-88
2021/11/25 07:35:02;;;;;;;17.02;13.45;;;2.70;99.90;;;;;;5055739;28;20056;-88
2021/11/25 07:37:29;;;;;;;17.38;12.93;;;2.80;99.90;;;;;;5056145;28;20435;-87
2021/11/25 07:39:56;;;;;;;19.83;13.70;;;2.80;99.90;;;;;;5077850;28;20131;-88
2021/11/25 07:42:22;;;;;;;18.08;12.57;;;2.80;99.90;;;;;;5059678;28;20495;-87
2021/11/25 07:44:49;;;;;;;18.40;12.85;;;2.80;99.90;;;;;;5077817;28;20055;-88
2021/11/25 07:47:20;;;;;;;20.85;13.13;;;2.80;99.90;;;;;;5060034;28;20044;-88
2021/11/25 07:49:47;;;;;;;20.40;13.95;;;2.80;99.90;;;;;;5059843;28;20053;-87
2021/11/25 07:52:14;;;;;;;20.52;14.50;;;2.80;99.90;;;;;;5058786;28;20045;-87
2021/11/25 07:54:41;;;;;;;20.25;14.00;;;2.70;99.90;;;;;;5076197;28;20052;-86
2021/11/25 07:57:08;;;;;;;19.50;14.30;;;2.80;99.90;;;;;;5063094;28;20139;-88
2021/11/25 07:59:35;;;;;;;18.17;13.20;;;2.80;99.90;;;;;;5079216;28;20096;-88
2021/11/25 08:02:02;;;;;;;18.55;12.75;;;2.80;99.90;;;;;;5043434;28;20080;-88
2021/11/25 08:04:29;;;;;;;19.80;12.88;;;2.80;99.90;;;;;;5059045;28;20093;-88
2021/11/25 08:06:56;;;;;;;18.00;12.52;;;2.80;99.90;;;;;;5076274;28;20048;-88
2021/11/25 08:09:23;;;;;;;17.17;12.55;;;2.80;99.90;;;;;;5058666;28;20041;-88
2021/11/25 08:11:50;;;;;;;19.35;13.05;;;2.80;99.90;;;;;;5076006;28;20052;-88
2021/11/25 08:14:16;;;;;;;17.20;12.40;;;2.70;99.90;;;;;;5058325;28;20107;-88
2021/11/25 08:16:43;;;;;;;15.70;11.73;;;2.70;99.90;;;;;;5058346;28;20056;-87
2021/11/25 08:19:10;;;;;;;16.45;12.02;;;2.70;99.90;;;;;;5059937;28;20050;-88
2021/11/25 08:21:37;;;;;;;16.48;11.95;;;2.70;99.90;;;;;;5058692;28;20052;-87
2021/11/25 08:24:04;;;;;;;18.13;11.80;;;2.70;99.90;;;;;;5058633;28;20048;-88
2021/11/25 08:26:31;;;;;;;15.50;11.48;;;2.70;99.90;;;;;;5076125;28;20095;-87
2021/11/25 08:28:57;;;;;;;17.05;11.68;;;2.70;99.90;;;;;;5075838;28;20502;-87
2021/11/25 08:31:24;;;;;;;16.83;11.80;;;2.70;99.90;;;;;;5058271;28;20052;-88
2021/11/25 08:33:51;;;;;;;15.50;11.10;;;2.70;99.90;;;;;;5058246;28;20080;-88
2021/11/25 08:36:18;;;;;;;19.35;12.20;;;2.70;99.90;;;;;;5058206;28;20048;-89
2021/11/25 08:38:45;;;;;;;17.23;11.85;;;2.70;99.90;;;;;;5075786;28;20425;-88
2021/11/25 08:41:12;;;;;;;19.73;13.05;;;2.70;99.90;;;;;;5075701;28;20048;-88
2021/11/25 08:43:39;;;;;;;19.13;12.15;;;2.70;99.90;;;;;;5057889;28;20484;-87
2021/11/25 08:46:06;;;;;;;17.40;12.43;;;2.80;99.90;;;;;;5057944;28;20049;-87
2021/11/25 08:48:33;;;;;;;16.63;11.35;;;2.80;99.90;;;;;;5057496;28;20056;-88
2021/11/25 08:51:00;;;;;;;18.85;12.20;;;2.80;99.90;;;;;;5057708;28;20048;-87
2021/11/25 08:53:26;;;;;;;16.88;12.02;;;2.80;99.90;;;;;;5058158;28;20120;-87
2021/11/25 08:55:53;;;;;;;15.77;11.85;;;2.80;99.90;;;;;;5075459;28;20474;-87
2021/11/25 08:58:20;;;;;;;15.82;11.27;;;2.90;99.90;;;;;;5075386;28;20080;-87
2021/11/25 09:00:50;;;;;;;16.95;12.35;;;2.90;99.90;;;;;;5057864;28;20498;-87
2021/11/25 09:03:18;;;;;;;17.92;12.07;;;2.80;99.90;;;;;;5075594;28;20041;-88
2021/11/25 09:05:45;;;;;;;15.02;11.15;;;2.90;99.90;;;;;;5075699;28;20055;-87
2021/11/25 09:08:12;;;;;;;17.02;11.77;;;2.90;99.90;;;;;;5057146;28;20149;-88
2021/11/25 09:10:39;;;;;;;18.60;12.38;;;2.90;99.90;;;;;;5057912;28;20049;-87
2021/11/25 09:13:06;;;;;;;19.77;12.52;;;3.00;99.90;;;;;;5063795;28;20117;-88
2021/11/25 09:15:34;;;;;;;18.27;12.02;;;3.10;99.90;;;;;;5076038;28;20068;-88
2021/11/25 09:18:02;;;;;;;16.92;11.35;;;3.10;99.90;;;;;;5057232;28;20052;-88
2021/11/25 09:20:32;;;;;;;17.20;11.52;;;3.20;99.90;;;;;;5074931;28;20079;-87
2021/11/25 09:23:05;;;;;;;19.10;12.07;;;3.20;99.90;;;;;;5075002;28;20059;-88
2021/11/25 09:25:32;;;;;;;16.40;11.48;;;3.20;99.90;;;;;;5057392;28;20052;-88
2021/11/25 09:28:00;;;;;;;16.60;10.50;;;3.20;99.90;;;;;;5057402;28;20060;-88
2021/11/25 09:30:27;;;;;;;16.38;11.15;;;3.20;99.90;;;;;;5056854;28;20048;-88
2021/11/25 09:32:55;;;;;;;17.35;12.20;;;3.20;99.90;;;;;;5056990;28;20053;-89
2021/11/25 09:35:22;;;;;;;17.23;11.50;;;3.30;99.90;;;;;;5057135;28;20052;-87
2021/11/25 09:37:50;;;;;;;16.23;11.00;;;3.20;99.90;;;;;;5056900;28;20139;-88
2021/11/25 09:40:22;;;;;;;19.73;11.75;;;3.30;99.90;;;;;;5057065;28;20464;-88
2021/11/25 09:42:55;;;;;;;19.15;11.63;;;3.40;99.90;;;;;;5056724;28;20135;-87
2021/11/25 09:45:23;;;;;;;20.27;13.27;;;3.30;99.90;;;;;;5057030;28;20103;-88
2021/11/25 09:47:54;;;;;;;17.00;11.63;;;3.20;99.90;;;;;;5073792;28;20076;-87
2021/11/25 09:50:23;;;;;;;19.42;12.75;;;3.20;99.90;;;;;;5073356;28;20412;-87
2021/11/25 09:52:54;;;;;;;17.75;11.98;;;3.30;99.90;;;;;;5056662;28;20110;-88
2021/11/25 09:55:22;;;;;;;17.80;10.95;;;3.30;99.90;;;;;;5074516;28;20098;-87
2021/11/25 09:57:51;;;;;;;16.27;11.18;;;3.40;99.90;;;;;;5056748;28;20127;-88
2021/11/25 10:00:22;;;;;;;18.58;11.40;;;3.50;99.90;;;;;;5056230;28;20052;-87
2021/11/25 10:02:49;;;;;;;14.07;10.30;;;3.60;99.90;;;;;;5056906;28;20062;-88
2021/11/25 10:05:16;;;;;;;15.45;11.02;;;3.70;99.90;;;;;;5056951;28;20070;-88
2021/11/25 10:07:45;;;;;;;16.55;10.75;;;3.80;99.90;;;;;;5074300;28;20094;-88
2021/11/25 10:10:29;;;;;;;16.02;11.10;;;3.70;99.90;;;;;;5056686;28;20041;-88
2021/11/25 10:13:12;;;;;;;24.30;10.68;;;3.70;99.90;;;;;;5056836;28;20057;-88
2021/11/25 10:15:40;;;;;;;16.90;9.98;;;3.60;99.90;;;;;;5056509;28;20404;-88
2021/11/25 10:18:12;;;;;;;15.68;9.93;;;3.60;99.90;;;;;;5056345;28;20056;-88
2021/11/25 10:20:45;;;;;;;22.47;11.30;;;3.60;99.90;;;;;;5056628;28;20087;-88
2021/11/25 10:23:28;;;;;;;18.80;11.30;;;3.60;99.90;;;;;;5056729;28;20040;-88
2021/11/25 10:26:03;;;;;;;22.33;11.52;;;3.60;99.90;;;;;;5056892;28;20551;-89
2021/11/25 10:28:34;;;;;;;17.02;10.43;;;3.60;99.90;;;;;;5081806;28;20048;-88
2021/11/25 10:31:28;;;;;;;16.10;9.98;;;3.50;99.90;;;;;;5072289;28;20140;-88
2021/11/25 10:34:13;;;;;;;14.60;9.05;;;3.60;99.90;;;;;;5056254;28;20480;-88
2021/11/25 10:42:15;;;;;;;13.85;8.32;;;3.80;99.90;;;;;;5073972;28;20059;-88
2021/11/25 10:44:53;;;;;;;24.33;9.07;;;4.00;99.90;;;;;;5073686;28;20052;-88
2021/11/25 10:47:25;;;;;;;11.77;7.90;;;4.10;99.90;;;;;;5056015;28;20103;-88
2021/11/25 10:50:00;;;;;;;14.13;8.45;;;4.10;99.90;;;;;;5056657;28;20055;-88
2021/11/25 10:52:43;;;;;;;13.25;8.95;;;4.20;99.90;;;;;;5056203;28;20420;-88
2021/11/25 10:55:17;;;;;;;10.13;7.85;;;4.20;99.90;;;;;;5073703;28;20047;-88
2021/11/25 10:58:00;;;;;;;10.35;7.43;;;4.20;99.90;;;;;;5055740;28;20055;-88
2021/11/25 11:00:34;;;;;;;9.88;7.90;;;4.20;99.90;;;;;;5055970;28;20044;-88
2021/11/25 11:03:05;;;;;;;14.07;8.07;;;4.20;99.90;;;;;;5073615;28;20503;-88
2021/11/25 11:05:48;;;;;;;19.40;9.00;;;4.10;99.90;;;;;;5055956;28;20274;-88
2021/11/25 11:08:16;;;;;;;14.98;8.23;;;4.00;99.90;;;;;;5073666;28;20411;-88
2021/11/25 11:11:02;;;;;;;19.50;8.40;;;4.00;99.90;;;;;;5055619;28;20139;-88
2021/11/25 11:13:41;;;;;;;11.70;8.68;;;3.80;99.90;;;;;;5077395;28;20081;-87
2021/11/25 11:19:01;;;;;;;12.18;8.45;;;3.80;99.90;;;;;;5077444;28;20048;-87
2021/11/25 11:21:34;;;;;;;25.27;10.60;;;3.80;99.90;;;;;;5077323;28;20048;-87
2021/11/25 11:24:08;;;;;;;16.50;9.52;;;3.90;99.90;;;;;;5077211;28;20439;-87
2021/11/25 11:26:42;;;;;;;11.32;7.82;;;4.00;99.90;;;;;;5077081;28;20496;-87
2021/11/25 11:29:10;;;;;;;18.33;7.32;;;4.00;99.90;;;;;;5059714;28;20053;-87
2021/11/25 11:31:38;;;;;;;14.18;7.75;;;4.10;99.90;;;;;;5059336;28;20044;-88
2021/11/25 11:34:09;;;;;;;17.67;8.45;;;4.10;99.90;;;;;;5059620;28;20139;-87
2021/11/25 11:36:43;;;;;;;16.10;8.70;;;4.10;99.90;;;;;;5060194;28;20140;-88
2021/11/25 11:39:14;;;;;;;16.58;9.40;;;4.10;99.90;;;;;;5059820;28;20048;-87
2021/11/25 11:41:44;;;;;;;11.80;7.65;;;4.10;99.90;;;;;;5082471;28;20526;-87
2021/11/25 11:44:11;;;;;;;13.05;8.18;;;4.10;99.90;;;;;;5069225;28;20092;-88
2021/11/25 11:46:40;;;;;;;22.27;8.60;;;4.10;99.90;;;;;;5088709;28;20052;-87
2021/11/25 11:49:08;;;;;;;13.52;7.75;;;4.20;99.90;;;;;;5059108;28;20127;-87
2021/11/25 11:51:36;;;;;;;14.68;7.63;;;4.10;99.90;;;;;;5058828;28;20052;-88
2021/11/25 11:54:16;;;;;;;13.10;7.55;;;4.10;99.90;;;;;;5059494;28;20168;-88
2021/11/25 11:56:45;;;;;;;16.75;7.80;;;4.10;99.90;;;;;;5059410;28;20143;-87
2021/11/25 11:59:13;;;;;;;17.42;7.85;;;4.00;99.90;;;;;;5059948;28;20045;-88
2021/11/25 12:01:40;;;;;;;16.88;8.73;;;3.90;99.90;;;;;;5076876;28;20055;-88
2021/11/25 12:04:10;;;;;;;11.77;8.18;;;3.90;99.90;;;;;;5058750;28;20044;-88
2021/11/25 12:06:40;;;;;;;20.05;8.68;;;3.70;99.90;;;;;;5058968;28;20054;-88
2021/11/25 12:09:22;;;;;;;13.02;8.25;;;3.70;99.90;;;;;;5057564;28;20493;-88
2021/11/25 12:11:55;;;;;;;14.32;9.07;;;3.60;99.90;;;;;;5059086;28;20465;-88
2021/11/25 12:14:24;;;;;;;12.23;7.68;;;3.50;99.90;;;;;;5076285;28;20044;-87
2021/11/25 12:17:03;;;;;;;13.55;8.32;;;3.60;99.90;;;;;;5058379;28;20158;-87
2021/11/25 12:19:35;;;;;;;14.38;7.63;;;3.50;99.90;;;;;;5058384;28;20517;-87
2021/11/25 12:22:11;;;;;;;10.25;7.07;;;3.60;99.90;;;;;;5058467;28;20502;-87
2021/11/25 12:24:47;;;;;;;15.27;8.48;;;3.70;99.90;;;;;;5057607;28;20060;-88
2021/11/25 12:27:37;;;;;;;19.35;7.07;;;3.80;99.90;;;;;;5058608;28;20119;-87
2021/11/25 12:30:11;;;;;;;11.85;7.00;;;3.70;99.90;;;;;;5058976;28;20404;-87
2021/11/25 12:35:13;;;;;;;9.07;6.47;;;3.60;99.90;;;;;;5076109;28;20127;-88
2021/11/25 12:37:44;;;;;;;14.85;7.72;;;3.60;99.90;;;;;;5075989;28;20560;-88
2021/11/25 12:40:25;;;;;;;8.75;6.68;;;3.60;99.90;;;;;;5060162;28;20052;-88
2021/11/25 12:43:10;;;;;;;12.93;7.55;;;3.60;99.90;;;;;;5058414;28;20058;-88
2021/11/25 12:45:41;;;;;;;10.50;8.18;;;3.50;99.90;;;;;;5058397;28;20049;-88
2021/11/25 12:48:08;;;;;;;16.38;8.27;;;3.40;99.90;;;;;;5058479;28;20052;-87
2021/11/25 12:50:42;;;;;;;12.45;8.55;;;3.30;99.90;;;;;;5075619;28;20127;-87
2021/11/25 12:53:16;;;;;;;12.18;8.57;;;3.30;99.90;;;;;;5075463;28;20058;-87
2021/11/25 12:55:45;;;;;;;15.88;9.68;;;3.40;99.90;;;;;;5075733;28;20143;-87
2021/11/25 12:58:13;;;;;;;12.68;9.68;;;3.20;99.90;;;;;;5066320;28;20055;-87
2021/11/25 13:00:43;;;;;;;21.73;10.20;;;3.10;99.90;;;;;;5079265;28;20120;-87